In Rescue
 
Open Full Screen Window  High Contrast Mode
Wind Gusting 21 knots
13
March 01, 2024 1:48 PM CST
Weather Information
Wind Direction
  180 °
Wind Speed
  13 kt (15 mph)
Wind Gust
  21 kt (24 mph)
Altimeter
29.74 in
Visibility
10 SM
Temperature
13° C
55° F
Dewpoint
00° C
32° F
Humidity
41%
Sky Condition
Clear
VFR

METAR KMGG 011948Z AUTO 18013G21KT 10SM CLR 13/00 A2974 RMK AO2 T01270001

FAA Disclaimer: The data displayed is for advisory purposes only and is not to be used for flight planning or operations.